Time;durP1;ratioP1;P1;durP2;ratioP2;P2;SDS_P1;SDS_P2;PMS_P1;PMS_P2;Temp;Humidity;BMP_temperature;BMP_pressure;BME280_temperature;BME280_humidity;BME280_pressure;Samples;Min_cycle;Max_cycle;Signal;HPM_P1;HPM_P2
2023/05/05 00:00:07;;;;;;;14.88;2.47;;;14.90;99.90;;;14.33;100.00;101278.22;4168642;28;20049;-74
2023/05/05 00:02:08;;;;;;;8.68;2.33;;;14.90;99.90;;;14.34;100.00;101269.22;4168427;28;20026;-74
2023/05/05 00:04:09;;;;;;;12.07;2.30;;;14.90;99.90;;;14.35;100.00;101270.91;4168470;28;20064;-73
2023/05/05 00:06:10;;;;;;;14.65;2.60;;;14.90;99.90;;;14.32;100.00;101263.25;4168393;28;20400;-74
2023/05/05 00:08:11;;;;;;;13.35;2.75;;;14.90;99.90;;;14.35;100.00;101263.78;4169700;28;20024;-74
2023/05/05 00:10:12;;;;;;;12.75;2.35;;;15.00;99.90;;;14.32;100.00;101266.75;4156223;28;20014;-73
2023/05/05 00:12:12;;;;;;;9.73;2.50;;;14.90;99.90;;;14.32;100.00;101277.38;4168213;28;20034;-74
2023/05/05 00:14:13;;;;;;;12.90;2.85;;;14.90;99.90;;;14.32;100.00;101265.91;4168612;28;20044;-73
2023/05/05 00:16:14;;;;;;;14.60;2.58;;;14.90;99.90;;;14.29;100.00;101264.41;4167338;28;20037;-73
2023/05/05 00:18:17;;;;;;;10.27;2.35;;;14.90;99.90;;;14.23;100.00;101259.78;4168532;28;20030;-73
2023/05/05 00:20:18;;;;;;;11.02;3.25;;;14.90;99.90;;;14.17;100.00;101247.16;4167243;28;20056;-74
2023/05/05 00:22:18;;;;;;;13.13;2.80;;;14.90;99.90;;;14.24;100.00;101253.47;4150730;28;20049;-74
2023/05/05 00:24:19;;;;;;;9.73;2.05;;;14.80;99.90;;;14.23;100.00;101237.72;4165992;28;20022;-74
2023/05/05 00:26:20;;;;;;;12.98;2.40;;;14.90;99.90;;;14.16;100.00;101229.59;4168461;28;20400;-73
2023/05/05 00:28:21;;;;;;;13.55;3.05;;;14.80;99.90;;;14.15;100.00;101235.91;4168311;28;20029;-74
2023/05/05 00:30:23;;;;;;;8.60;1.90;;;14.80;99.90;;;14.13;100.00;101245.84;4167359;28;20026;-73
2023/05/05 00:32:23;;;;;;;12.52;2.83;;;14.80;99.90;;;14.10;100.00;101242.69;4163798;28;20044;-74
2023/05/05 00:34:24;;;;;;;9.65;3.00;;;14.80;99.90;;;14.14;100.00;101244.84;4167134;28;20025;-73
2023/05/05 00:36:25;;;;;;;10.68;2.10;;;14.80;99.90;;;14.12;100.00;101233.59;4167281;28;20033;-74
2023/05/05 00:38:26;;;;;;;9.05;2.67;;;14.80;99.90;;;14.18;100.00;101254.16;4166966;28;20038;-74
2023/05/05 00:40:27;;;;;;;9.82;2.08;;;14.80;99.90;;;14.16;100.00;101240.19;4168228;28;20099;-73
2023/05/05 00:42:42;;;;;;;9.45;2.22;;;14.80;99.90;;;14.25;100.00;101244.50;4180526;28;20439;-73
2023/05/05 00:44:43;;;;;;;10.90;2.22;;;14.80;99.90;;;14.19;100.00;101239.84;4166795;28;20049;-74
2023/05/05 00:46:44;;;;;;;11.60;2.97;;;14.80;99.90;;;14.27;100.00;101241.69;4161231;28;20021;-74
2023/05/05 00:48:45;;;;;;;14.15;2.33;;;14.90;99.90;;;14.26;100.00;101237.38;4168104;28;20071;-74
2023/05/05 00:50:46;;;;;;;13.10;2.47;;;14.90;99.90;;;14.26;100.00;101234.72;4167087;28;20022;-73
2023/05/05 00:52:48;;;;;;;10.70;2.33;;;14.90;99.90;;;14.22;100.00;101228.06;4170883;28;20065;-74
2023/05/05 00:54:49;;;;;;;9.82;2.63;;;14.90;99.90;;;14.24;100.00;101211.03;4186467;28;20059;-74
2023/05/05 00:56:50;;;;;;;15.20;1.80;;;14.90;99.90;;;14.23;100.00;101213.81;4186299;28;20025;-74
2023/05/05 00:58:52;;;;;;;10.07;2.30;;;14.90;99.90;;;14.25;100.00;101209.16;4186487;28;20439;-74
2023/05/05 01:00:52;;;;;;;9.52;2.33;;;14.90;99.90;;;14.24;100.00;101205.72;4186446;28;20039;-74
2023/05/05 01:02:54;;;;;;;11.23;2.22;;;14.90;99.90;;;14.26;100.00;101206.38;4186366;28;20043;-73
2023/05/05 01:04:55;;;;;;;13.18;2.10;;;14.90;99.90;;;14.26;100.00;101200.22;4180782;28;20052;-73
2023/05/05 01:07:19;;;;;;;10.00;1.80;;;14.90;99.90;;;14.27;100.00;101205.38;4166291;28;20508;-73
2023/05/05 01:09:48;;;;;;;18.15;2.30;;;14.90;99.90;;;14.23;100.00;101208.50;4164695;28;20423;-74
2023/05/05 01:12:14;;;;;;;11.18;1.95;;;14.80;99.90;;;14.20;100.00;101206.19;4169577;28;20079;-74
2023/05/05 01:14:25;;;;;;;14.48;2.95;;;14.80;99.90;;;14.16;100.00;101196.91;4170920;28;20542;-74
2023/05/05 01:16:32;;;;;;;8.70;2.38;;;14.80;99.90;;;14.20;100.00;101203.53;4185931;28;20059;-73
2023/05/05 01:19:08;;;;;;;13.25;3.70;;;14.80;99.90;;;14.22;100.00;101206.84;4170747;28;20026;-73
2023/05/05 01:21:17;;;;;;;11.10;2.88;;;14.80;99.90;;;14.23;100.00;101203.22;4184359;28;20028;-74
2023/05/05 01:23:48;;;;;;;9.85;2.25;;;14.80;99.90;;;14.22;100.00;101206.84;4170693;28;20026;-74
2023/05/05 01:26:18;;;;;;;12.45;2.83;;;14.80;99.90;;;14.19;100.00;101202.72;4170765;28;20037;-73
2023/05/05 01:28:56;;;;;;;6.78;1.90;;;14.80;99.90;;;14.16;100.00;101205.69;4169325;28;20033;-73
2023/05/05 01:31:33;;;;;;;13.25;2.17;;;14.80;99.90;;;14.15;100.00;101196.09;4169518;28;20100;-73
2023/05/05 01:33:44;;;;;;;14.65;2.35;;;14.80;99.90;;;14.13;100.00;101186.63;4170597;28;20029;-73
2023/05/05 01:35:52;;;;;;;12.60;2.42;;;14.80;99.90;;;14.16;100.00;101197.75;4185432;28;20033;-73
2023/05/05 01:38:07;;;;;;;8.45;2.50;;;14.80;99.90;;;14.15;100.00;101189.97;4185597;28;20392;-74
2023/05/05 01:40:11;;;;;;;10.70;1.90;;;14.80;99.90;;;14.20;100.00;101193.78;4185727;28;20029;-74
2023/05/05 01:42:13;;;;;;;6.22;1.65;;;14.80;99.90;;;14.14;100.00;101189.13;4170036;28;20045;-74
2023/05/05 01:44:17;;;;;;;5.90;1.63;;;14.80;99.90;;;14.20;100.00;101201.72;4185408;28;20049;-74
2023/05/05 01:46:20;;;;;;;14.32;2.65;;;14.80;99.90;;;14.22;100.00;101194.41;4170394;28;20021;-74
2023/05/05 01:48:22;;;;;;;13.35;2.05;;;14.80;99.90;;;14.19;100.00;101192.09;4185527;28;20512;-74
2023/05/05 01:50:27;;;;;;;11.45;2.30;;;14.80;99.90;;;14.25;100.00;101201.22;4154741;28;20026;-74
2023/05/05 01:52:29;;;;;;;9.45;1.98;;;14.80;99.90;;;14.21;100.00;101192.78;4158443;28;20393;-74
2023/05/05 01:54:33;;;;;;;9.15;2.55;;;14.80;99.90;;;14.20;100.00;101195.59;4169034;28;20033;-74
2023/05/05 01:56:37;;;;;;;9.82;2.22;;;14.80;99.90;;;14.18;100.00;101187.81;4169054;28;20033;-74
2023/05/05 01:58:41;;;;;;;16.02;2.63;;;14.80;99.90;;;14.13;100.00;101186.63;4152243;28;20526;-74
2023/05/05 02:00:43;;;;;;;10.57;2.15;;;14.80;99.90;;;14.17;100.00;101188.78;4168961;28;20064;-74
2023/05/05 02:02:48;;;;;;;7.70;1.90;;;14.80;99.90;;;14.13;100.00;101181.31;4169164;28;20566;-74
2023/05/05 02:04:52;;;;;;;11.27;2.35;;;14.80;99.90;;;14.13;100.00;101187.47;4168706;28;20041;-74
2023/05/05 02:06:55;;;;;;;13.05;2.40;;;14.80;99.90;;;14.17;100.00;101201.22;4169900;28;20025;-73
2023/05/05 02:08:57;;;;;;;14.07;2.15;;;14.80;99.90;;;14.18;100.00;101190.47;4168927;28;20025;-74
2023/05/05 02:10:58;;;;;;;7.47;2.08;;;14.80;99.90;;;14.16;100.00;101189.78;4152344;28;20029;-74
2023/05/05 02:13:01;;;;;;;13.55;2.85;;;14.80;99.90;;;14.17;100.00;101183.50;4165611;28;20535;-74
2023/05/05 02:15:03;;;;;;;11.10;2.67;;;14.80;99.90;;;14.18;100.00;101193.13;4185194;28;20025;-74
2023/05/05 02:17:04;;;;;;;8.82;2.13;;;14.80;99.90;;;14.16;100.00;101196.91;4168740;28;20025;-74
2023/05/05 02:19:06;;;;;;;14.70;2.47;;;14.80;99.90;;;14.14;100.00;101197.09;4169821;28;20032;-74
2023/05/05 02:21:07;;;;;;;14.00;2.40;;;14.80;99.90;;;14.14;100.00;101193.59;4155364;28;20116;-74
2023/05/05 02:23:08;;;;;;;10.88;2.75;;;14.80;99.90;;;14.11;100.00;101193.94;4155483;28;20035;-74
2023/05/05 02:25:09;;;;;;;12.27;2.97;;;14.80;99.90;;;14.18;100.00;101197.59;4151948;28;20050;-74
2023/05/05 02:27:12;;;;;;;7.93;3.08;;;14.80;99.90;;;14.20;100.00;101200.91;4151746;28;20030;-74
2023/05/05 02:29:22;;;;;;;12.65;2.50;;;14.80;99.90;;;14.17;100.00;101198.56;4169651;28;20029;-74
2023/05/05 02:31:25;;;;;;;10.60;2.70;;;14.80;99.90;;;14.18;100.00;101200.25;4168299;28;20536;-73
2023/05/05 02:33:31;;;;;;;11.43;2.47;;;14.80;99.90;;;14.15;100.00;101205.88;4168477;28;20033;-74
2023/05/05 02:35:39;;;;;;;8.13;2.13;;;14.80;99.90;;;14.10;100.00;101198.41;4184613;28;20029;-74
2023/05/05 02:37:47;;;;;;;16.08;3.25;;;14.80;99.90;;;14.17;100.00;101210.03;4184570;28;20083;-74
2023/05/05 02:39:57;;;;;;;17.83;3.05;;;14.80;99.90;;;14.16;100.00;101213.66;4169540;28;20029;-73
2023/05/05 02:42:01;;;;;;;14.82;2.83;;;14.80;99.90;;;14.16;100.00;101216.31;4169154;28;20028;-74
2023/05/05 02:44:04;;;;;;;10.20;2.20;;;14.80;99.90;;;14.15;100.00;101222.63;4168229;28;20045;-73
2023/05/05 02:46:05;;;;;;;11.07;2.63;;;14.80;99.90;;;14.15;100.00;101219.97;4169456;28;20029;-74
2023/05/05 02:48:06;;;;;;;12.63;1.95;;;14.80;99.90;;;14.12;100.00;101225.63;4168075;28;20025;-73
2023/05/05 02:50:08;;;;;;;13.48;3.33;;;14.80;99.90;;;14.08;100.00;101221.63;4164580;28;20501;-74
2023/05/05 02:52:09;;;;;;;14.25;2.63;;;14.80;99.90;;;14.10;100.00;101214.31;4169360;28;20037;-73
2023/05/05 02:54:10;;;;;;;16.73;3.83;;;14.80;99.90;;;14.09;100.00;101215.34;4156777;28;20052;-74
2023/05/05 02:56:48;;;;;;;13.13;3.47;;;14.80;99.90;;;14.13;100.00;101214.00;4168039;28;20029;-74
2023/05/05 02:59:33;;;;;;;11.73;2.47;;;14.80;99.90;;;14.11;100.00;101221.31;4167878;28;20035;-73
2023/05/05 03:01:49;;;;;;;12.73;2.50;;;14.80;99.90;;;14.07;100.00;101214.66;4168017;28;20039;-73
2023/05/05 03:04:16;;;;;;;15.52;2.92;;;14.70;99.90;;;14.00;100.00;101210.22;4169162;28;20029;-74
2023/05/05 03:06:20;;;;;;;17.08;3.50;;;14.70;99.90;;;13.96;100.00;101211.53;4167850;28;20072;-74
2023/05/05 03:08:41;;;;;;;;;;;14.60;99.90;;;13.94;100.00;101209.06;4168222;28;20087;-74
2023/05/05 03:11:00;;;;;;;14.77;2.90;;;14.60;99.90;;;14.03;100.00;101209.88;4168004;28;19912;-74
2023/05/05 03:13:05;;;;;;;15.00;3.67;;;14.60;99.90;;;13.96;100.00;101201.75;4168692;28;20030;-74
2023/05/05 03:15:09;;;;;;;17.10;2.47;;;14.60;99.90;;;13.85;100.00;101183.53;4163352;28;20072;-74
2023/05/05 03:17:11;;;;;;;14.13;3.38;;;14.60;99.90;;;13.93;100.00;101203.91;4142905;28;20057;-74
2023/05/05 03:19:17;;;;;;;10.13;2.22;;;14.60;99.90;;;13.88;100.00;101207.06;4168947;28;20026;-74
2023/05/05 03:21:18;;;;;;;15.18;3.47;;;14.50;99.90;;;13.79;100.00;101208.88;4168804;28;20057;-74
2023/05/05 03:23:21;;;;;;;12.07;3.20;;;14.50;99.90;;;13.80;100.00;101212.34;4184312;28;20025;-74
2023/05/05 03:25:39;;;;;;;14.60;4.95;;;14.50;99.90;;;13.73;100.00;101200.75;4168869;28;20029;-73
2023/05/05 03:27:40;;;;;;;20.25;3.60;;;14.50;99.90;;;13.81;100.00;101206.06;4181696;28;20025;-73
2023/05/05 03:29:41;;;;;;;13.50;3.83;;;14.50;99.90;;;13.83;100.00;101215.50;4168925;28;20464;-74
2023/05/05 03:31:42;;;;;;;18.02;2.88;;;14.50;99.90;;;13.82;100.00;101205.06;4169026;28;20063;-74
2023/05/05 03:33:43;;;;;;;9.18;2.10;;;14.50;99.90;;;13.85;100.00;101212.69;4168760;28;20033;-74
2023/05/05 03:35:44;;;;;;;10.20;2.83;;;14.50;99.90;;;13.84;100.00;101209.22;4151060;28;20053;-74
2023/05/05 03:37:45;;;;;;;16.95;2.83;;;14.50;99.90;;;13.85;100.00;101210.03;4167667;28;20183;-74
2023/05/05 03:39:46;;;;;;;12.77;3.22;;;14.50;99.90;;;13.80;100.00;101199.09;4168955;28;20511;-73
2023/05/05 03:41:46;;;;;;;18.63;2.58;;;14.50;99.90;;;13.78;100.00;101199.28;4168272;28;20032;-73
2023/05/05 03:43:47;;;;;;;13.95;3.95;;;14.50;99.90;;;13.75;100.00;101199.59;4183629;28;20044;-73
2023/05/05 03:45:49;;;;;;;14.02;3.17;;;14.40;99.90;;;13.66;100.00;101181.19;4151127;28;20026;-74
2023/05/05 03:47:50;;;;;;;11.23;2.40;;;14.40;99.90;;;13.73;100.00;101198.09;4157642;28;20030;-74
2023/05/05 03:49:51;;;;;;;15.52;2.53;;;14.40;99.90;;;13.73;100.00;101206.06;4183767;28;20021;-74
2023/05/05 03:51:52;;;;;;;11.15;2.78;;;14.40;99.90;;;13.76;100.00;101203.09;4167111;28;20100;-73
2023/05/05 03:53:53;;;;;;;21.90;3.55;;;14.40;99.90;;;13.75;100.00;101204.06;4155947;28;20026;-73
2023/05/05 03:55:54;;;;;;;11.98;3.05;;;14.40;99.90;;;13.77;100.00;101194.94;4184293;28;20086;-74
2023/05/05 03:57:55;;;;;;;13.52;3.83;;;14.40;99.90;;;13.80;100.00;101201.75;4167056;28;20032;-73
2023/05/05 03:59:56;;;;;;;12.63;2.65;;;14.40;99.90;;;13.74;100.00;101189.13;4167385;28;20041;-74
2023/05/05 04:01:56;;;;;;;18.58;4.28;;;14.40;99.90;;;13.75;100.00;101194.28;4180340;28;20053;-73
2023/05/05 04:03:57;;;;;;;17.98;3.28;;;14.40;99.90;;;13.64;100.00;101180.53;4157200;28;20038;-74
2023/05/05 04:05:58;;;;;;;12.05;3.38;;;14.40;99.90;;;13.65;100.00;101187.50;4168399;28;20052;-74
2023/05/05 04:08:00;;;;;;;17.40;4.50;;;14.30;99.90;;;13.60;100.00;101195.94;4168433;28;20068;-74
2023/05/05 04:10:01;;;;;;;21.70;3.25;;;14.30;99.90;;;13.55;100.00;101192.13;4150731;28;20029;-74
2023/05/05 04:12:02;;;;;;;16.35;3.45;;;14.30;99.90;;;13.47;100.00;101187.63;4159459;28;20071;-74
2023/05/05 04:14:02;;;;;;;16.80;3.40;;;14.20;99.90;;;13.32;100.00;101182.16;4167223;28;20029;-73
2023/05/05 04:16:04;;;;;;;7.60;2.17;;;14.10;99.90;;;13.22;100.00;101189.44;4183803;28;20021;-73
2023/05/05 04:18:04;;;;;;;17.13;3.88;;;14.00;99.90;;;13.14;100.00;101176.16;4168319;28;20040;-74
2023/05/05 04:20:07;;;;;;;14.27;2.42;;;13.80;99.90;;;13.15;100.00;101190.22;4183905;28;20396;-73
2023/05/05 04:22:07;;;;;;;15.57;3.97;;;13.90;99.90;;;13.10;100.00;101177.47;4168406;28;20489;-73
2023/05/05 04:24:09;;;;;;;20.45;3.92;;;13.80;99.90;;;13.09;100.00;101186.41;4167101;28;20037;-73
2023/05/05 04:26:10;;;;;;;12.68;3.25;;;13.80;99.90;;;12.99;100.00;101190.97;4167318;28;20525;-73
2023/05/05 04:28:11;;;;;;;18.98;3.70;;;13.70;99.90;;;12.96;100.00;101196.59;4186635;28;20021;-74
2023/05/05 04:30:12;;;;;;;16.95;2.80;;;13.70;99.90;;;12.92;100.00;101189.97;4164299;28;20057;-74
2023/05/05 04:32:13;;;;;;;11.55;2.95;;;13.60;99.90;;;12.98;100.00;101199.91;4170202;28;20028;-73
2023/05/05 04:34:14;;;;;;;10.40;2.83;;;13.60;99.90;;;13.00;100.00;101197.94;4171366;28;20029;-73
2023/05/05 04:36:14;;;;;;;14.85;3.55;;;13.60;99.90;;;12.92;100.00;101174.06;4171015;28;20018;-74
2023/05/05 04:38:15;;;;;;;18.73;4.05;;;13.70;99.90;;;13.10;100.00;101195.19;4171593;28;20032;-73
2023/05/05 04:40:16;;;;;;;13.48;3.08;;;13.70;99.90;;;13.10;100.00;101193.38;4171371;28;20037;-74
2023/05/05 04:42:17;;;;;;;13.43;3.63;;;13.80;99.90;;;13.12;100.00;101187.91;4182221;28;20029;-74
2023/05/05 04:44:18;;;;;;;22.17;4.05;;;13.80;99.90;;;13.19;100.00;101196.88;4159617;28;20448;-74
2023/05/05 04:46:19;;;;;;;17.58;3.85;;;13.90;99.90;;;13.12;100.00;101190.53;4170104;28;20085;-73
2023/05/05 04:48:20;;;;;;;22.52;3.75;;;13.80;99.90;;;13.20;100.00;101199.34;4170074;28;20132;-74
2023/05/05 04:50:21;;;;;;;16.08;2.90;;;13.80;99.90;;;13.19;100.00;101202.16;4171312;28;20021;-74
2023/05/05 04:52:22;;;;;;;11.82;2.85;;;13.80;99.90;;;13.15;100.00;101196.34;4169879;28;20037;-74
2023/05/05 04:54:23;;;;;;;14.43;3.85;;;13.80;99.90;;;13.22;100.00;101204.50;4186622;28;20559;-74
2023/05/05 04:56:24;;;;;;;17.45;3.25;;;13.90;99.90;;;13.20;100.00;101202.00;4170083;28;20030;-74
2023/05/05 04:58:25;;;;;;;16.83;3.45;;;13.90;99.90;;;13.16;100.00;101200.69;4169485;28;20112;-73
2023/05/05 05:00:26;;;;;;;16.08;3.35;;;13.80;99.90;;;13.12;100.00;101196.69;4186438;28;20028;-74
2023/05/05 05:02:27;;;;;;;15.55;3.03;;;13.80;99.90;;;13.12;100.00;101195.84;4179531;28;20029;-73
2023/05/05 05:04:28;;;;;;;22.90;4.90;;;13.80;99.90;;;13.11;100.00;101199.50;4164469;28;20028;-73
2023/05/05 05:06:29;;;;;;;13.15;3.20;;;13.80;99.90;;;13.10;100.00;101209.25;4186185;28;20063;-73
2023/05/05 05:08:30;;;;;;;16.17;5.13;;;13.80;99.90;;;13.05;100.00;101200.91;4157793;28;20112;-73
2023/05/05 05:10:30;;;;;;;17.05;3.35;;;13.70;99.90;;;13.04;100.00;101201.94;4163366;28;20025;-74
2023/05/05 05:12:31;;;;;;;16.70;3.13;;;13.70;99.90;;;13.03;100.00;101205.56;4163615;28;20034;-73
2023/05/05 05:14:41;;;;;;;14.70;3.63;;;13.70;99.90;;;13.03;100.00;101213.50;4169537;28;20420;-74
2023/05/05 05:16:42;;;;;;;18.65;3.42;;;13.70;99.90;;;13.03;100.00;101221.44;4170986;28;20037;-74
2023/05/05 05:18:42;;;;;;;13.75;3.30;;;13.70;99.90;;;13.02;100.00;101211.84;4170811;28;20401;-73
2023/05/05 05:20:43;;;;;;;13.57;3.38;;;13.70;99.90;;;13.10;100.00;101219.03;4186098;28;20032;-74
2023/05/05 05:22:45;;;;;;;16.13;3.20;;;13.80;99.90;;;13.17;100.00;101212.09;4185904;28;20025;-74
2023/05/05 05:24:45;;;;;;;19.30;3.40;;;13.80;99.90;;;13.32;100.00;101228.19;4156689;28;20029;-74
2023/05/05 05:26:47;;;;;;;17.67;4.18;;;13.90;99.90;;;13.49;100.00;101232.53;4152698;28;20033;-74
2023/05/05 05:28:47;;;;;;;18.08;3.80;;;14.00;99.90;;;13.71;100.00;101226.59;4170655;28;20028;-74
2023/05/05 05:30:48;;;;;;;22.30;4.32;;;14.20;99.90;;;13.93;100.00;101233.91;4169269;28;20029;-74
2023/05/05 05:32:49;;;;;;;17.83;3.80;;;14.40;99.90;;;14.02;100.00;101222.31;4169178;28;20057;-74
2023/05/05 05:34:50;;;;;;;18.38;2.88;;;14.50;99.90;;;14.13;100.00;101219.31;4169378;28;20567;-74
2023/05/05 05:36:51;;;;;;;14.15;3.20;;;14.70;99.90;;;14.17;100.00;101223.28;4168912;28;20432;-74
2023/05/05 05:38:52;;;;;;;16.70;2.88;;;14.70;99.90;;;14.16;100.00;101226.94;4152577;28;20037;-73
2023/05/05 05:40:53;;;;;;;17.40;3.75;;;14.70;99.90;;;14.06;100.00;101220.97;4184597;28;20135;-74
2023/05/05 05:42:54;;;;;;;16.27;4.28;;;14.70;99.90;;;14.16;100.00;101236.69;4168776;28;20041;-73
2023/05/05 05:44:55;;;;;;;13.07;3.90;;;14.80;99.90;;;14.23;100.00;101230.59;4160856;28;20037;-74
2023/05/05 05:46:56;;;;;;;19.63;3.33;;;14.80;99.90;;;14.15;100.00;101222.63;4169109;28;20069;-73
2023/05/05 05:48:57;;;;;;;17.27;3.45;;;14.80;99.90;;;14.18;100.00;101238.22;4170281;28;20026;-73
2023/05/05 05:50:58;;;;;;;19.45;3.28;;;14.70;99.90;;;14.07;100.00;101241.19;4185694;28;20067;-73
2023/05/05 05:52:59;;;;;;;21.10;4.20;;;14.70;99.90;;;13.99;100.00;101238.56;4170150;28;20040;-73
2023/05/05 05:55:00;;;;;;;14.52;2.80;;;14.60;99.90;;;13.90;100.00;101228.94;4185533;28;20040;-74
2023/05/05 05:57:01;;;;;;;12.68;3.13;;;14.50;99.90;;;13.89;100.00;101234.41;4152179;28;20026;-74
2023/05/05 05:59:03;;;;;;;17.67;3.47;;;14.50;99.90;;;13.93;100.00;101252.47;4173733;28;20032;-74
2023/05/05 06:01:04;;;;;;;18.23;3.75;;;14.50;99.90;;;13.94;100.00;101248.84;4170152;28;20087;-74
2023/05/05 06:03:05;;;;;;;21.13;4.15;;;14.50;99.90;;;14.01;100.00;101249.81;4173836;28;20501;-74
2023/05/05 06:05:06;;;;;;;15.65;3.20;;;14.50;99.90;;;14.14;100.00;101258.13;4168135;28;20174;-74
2023/05/05 06:07:07;;;;;;;19.60;3.88;;;14.60;99.90;;;14.29;100.00;101260.91;4170082;28;20029;-74
2023/05/05 06:09:08;;;;;;;20.83;3.80;;;14.70;99.90;;;14.37;100.00;101252.97;4169990;28;20022;-74
2023/05/05 06:11:09;;;;;;;11.82;2.88;;;14.80;99.90;;;14.54;100.00;101259.94;4157533;28;20112;-73
2023/05/05 06:13:09;;;;;;;17.15;3.35;;;15.00;99.90;;;14.70;100.00;101257.22;4166603;28;20484;-74
2023/05/05 06:15:10;;;;;;;22.30;3.83;;;15.10;99.90;;;14.73;100.00;101259.53;4185173;28;20024;-73
2023/05/05 06:17:11;;;;;;;25.05;4.55;;;15.20;99.90;;;14.62;100.00;101243.16;4169104;28;20022;-74
2023/05/05 06:19:12;;;;;;;18.00;3.42;;;15.20;99.90;;;14.74;100.00;101257.72;4168558;28;20029;-73
2023/05/05 06:21:13;;;;;;;15.73;3.28;;;15.20;99.90;;;14.80;100.00;101249.06;4169698;28;20033;-73
2023/05/05 06:23:14;;;;;;;16.63;4.32;;;15.30;99.90;;;14.80;100.00;101252.56;4168178;28;20029;-74
2023/05/05 06:25:15;;;;;;;12.43;2.80;;;15.30;99.90;;;14.71;100.00;101250.09;4168561;28;20022;-73
2023/05/05 06:27:16;;;;;;;12.07;2.53;;;15.30;99.90;;;14.69;100.00;101258.25;4184836;28;20297;-73
2023/05/05 06:29:17;;;;;;;18.27;3.53;;;15.20;99.90;;;14.62;100.00;101251.09;4168260;28;20501;-73
2023/05/05 06:31:18;;;;;;;17.58;3.30;;;15.20;99.90;;;14.78;100.00;101256.38;4168690;28;20053;-74
2023/05/05 06:33:18;;;;;;;17.70;3.28;;;15.30;99.90;;;15.01;100.00;101259.94;4167868;28;20025;-73
2023/05/05 06:35:21;;;;;;;20.33;4.30;;;15.40;99.90;;;15.24;100.00;101268.81;4169180;28;20380;-74
2023/05/05 06:37:21;;;;;;;18.85;4.10;;;15.60;99.90;;;15.45;100.00;101268.22;4168142;28;20061;-74
2023/05/05 06:39:22;;;;;;;17.40;3.50;;;15.80;99.90;;;15.52;100.00;101265.72;4169562;28;20108;-73
2023/05/05 06:41:23;;;;;;;19.67;3.42;;;15.90;99.90;;;15.61;100.00;101276.13;4168263;28;20029;-73
2023/05/05 06:43:24;;;;;;;22.70;4.20;;;16.10;99.90;;;15.75;100.00;101261.25;4166557;28;20033;-74
2023/05/05 06:45:25;;;;;;;25.92;4.22;;;16.20;99.90;;;15.87;100.00;101271.31;4151528;28;20094;-73
2023/05/05 06:47:26;;;;;;;12.70;3.00;;;16.30;99.90;;;16.06;100.00;101272.66;4151967;28;20421;-73
2023/05/05 06:49:27;;;;;;;18.02;4.07;;;16.50;99.90;;;16.16;100.00;101273.22;4167544;28;20068;-74
2023/05/05 06:51:28;;;;;;;17.55;3.42;;;16.60;99.90;;;16.20;100.00;101279.84;4168090;28;20025;-74
2023/05/05 06:53:29;;;;;;;13.23;3.17;;;16.70;99.90;;;16.27;100.00;101272.81;4167929;28;20025;-74
2023/05/05 06:55:30;;;;;;;21.17;3.35;;;16.80;99.90;;;16.26;100.00;101267.66;4169748;28;20036;-74
2023/05/05 06:57:31;;;;;;;15.77;2.92;;;16.80;99.90;;;16.41;100.00;101272.00;4169059;28;20033;-74
2023/05/05 06:59:32;;;;;;;17.70;3.72;;;16.90;99.90;;;16.59;100.00;101277.84;4169200;28;20519;-74
2023/05/05 07:01:33;;;;;;;16.67;4.40;;;17.00;99.90;;;16.79;100.00;101279.97;4169217;28;20029;-74
2023/05/05 07:03:33;;;;;;;16.95;3.65;;;17.20;99.90;;;16.87;100.00;101285.22;4154696;28;20087;-74
2023/05/05 07:05:35;;;;;;;16.15;3.60;;;17.30;99.90;;;17.01;100.00;101271.91;4145375;28;20428;-74
2023/05/05 07:07:37;;;;;;;17.70;4.30;;;17.50;99.90;;;17.06;100.00;101261.50;4167300;28;20022;-74
2023/05/05 07:09:40;;;;;;;18.60;4.05;;;17.60;99.90;;;17.02;100.00;101272.72;4166217;28;20021;-75
2023/05/05 07:11:40;;;;;;;18.45;4.60;;;17.60;99.90;;;17.09;100.00;101273.63;4166615;28;20022;-74
2023/05/05 07:13:41;;;;;;;16.73;3.30;;;17.60;99.90;;;16.97;100.00;101278.59;4167637;28;20425;-71
2023/05/05 07:15:45;;;;;;;15.77;3.67;;;17.60;99.90;;;16.70;100.00;101283.72;4168526;28;20025;-72
2023/05/05 07:17:46;;;;;;;18.88;3.53;;;17.50;99.90;;;16.42;100.00;101280.84;4168267;28;20025;-71
2023/05/05 07:19:47;;;;;;;22.92;3.83;;;17.20;99.90;;;16.30;100.00;101282.28;4179818;28;20040;-71
2023/05/05 07:21:48;;;;;;;15.88;3.22;;;17.10;99.90;;;16.21;100.00;101284.19;4159032;28;20028;-71
2023/05/05 07:23:49;;;;;;;18.27;3.25;;;17.00;99.90;;;16.28;100.00;101284.25;4168468;28;20025;-71
2023/05/05 07:25:50;;;;;;;17.48;3.55;;;17.00;99.90;;;16.21;100.00;101278.84;4183547;28;20025;-71
2023/05/05 07:27:51;;;;;;;13.00;3.30;;;16.90;99.90;;;16.32;100.00;101286.41;4166949;28;20033;-71
2023/05/05 07:29:52;;;;;;;16.67;2.90;;;17.00;99.90;;;16.59;100.00;101277.84;4183626;28;20088;-71
2023/05/05 07:31:53;;;;;;;12.80;3.03;;;17.10;99.90;;;16.84;100.00;101274.94;4168260;28;20053;-72
2023/05/05 07:33:53;;;;;;;17.15;4.78;;;17.30;99.90;;;17.21;100.00;101272.13;4168492;28;20025;-71
2023/05/05 07:35:54;;;;;;;20.10;3.78;;;17.60;99.90;;;17.49;100.00;101273.09;4183740;28;20032;-73
2023/05/05 07:37:55;;;;;;;19.67;3.28;;;17.90;99.90;;;17.70;100.00;101277.69;4167088;28;20026;-72
2023/05/05 07:39:56;;;;;;;16.00;3.20;;;18.10;99.90;;;17.80;100.00;101275.50;4167702;28;20037;-71
2023/05/05 07:41:57;;;;;;;25.25;4.05;;;18.30;99.90;;;17.85;100.00;101280.28;4183097;28;20462;-72
2023/05/05 07:43:59;;;;;;;16.98;3.75;;;18.50;99.90;;;17.97;100.00;101274.25;4168155;28;20045;-71
2023/05/05 07:46:00;;;;;;;16.38;3.45;;;18.60;99.90;;;18.08;100.00;101267.56;4183454;28;20112;-71
2023/05/05 07:48:01;;;;;;;17.83;3.70;;;18.70;99.90;;;18.04;99.58;101280.47;4166575;28;20029;-71
2023/05/05 07:50:02;;;;;;;17.55;4.03;;;18.70;99.90;;;17.90;100.00;101283.19;4164482;28;20040;-71
2023/05/05 07:52:03;;;;;;;17.35;4.10;;;18.60;99.90;;;17.61;100.00;101279.63;4167870;28;20104;-71
2023/05/05 07:54:04;;;;;;;11.75;2.40;;;18.40;99.90;;;17.40;100.00;101270.72;4168120;28;20032;-71
2023/05/05 07:56:07;;;;;;;12.98;4.10;;;18.10;99.90;;;17.31;100.00;101286.03;4168662;28;20100;-71
2023/05/05 07:58:09;;;;;;;19.92;5.22;;;18.00;99.90;;;16.99;100.00;101281.91;4168169;28;20029;-71
2023/05/05 08:00:12;;;;;;;21.20;3.38;;;17.80;99.90;;;16.79;100.00;101283.47;4168982;28;20399;-71
2023/05/05 08:02:13;;;;;;;12.35;2.63;;;17.60;99.90;;;16.49;100.00;101277.25;4172308;28;20036;-71
2023/05/05 08:04:14;;;;;;;18.48;3.78;;;17.40;99.90;;;16.37;100.00;101289.34;4187181;28;20017;-71
2023/05/05 08:06:15;;;;;;;16.52;3.38;;;17.20;99.90;;;16.31;100.00;101292.72;4170484;28;20022;-71
2023/05/05 08:08:16;;;;;;;17.88;3.50;;;17.10;99.90;;;16.06;100.00;101275.31;4171897;28;20045;-71
2023/05/05 08:10:17;;;;;;;15.43;3.25;;;16.90;99.90;;;16.15;100.00;101281.41;4187347;28;20630;-71
2023/05/05 08:12:18;;;;;;;17.40;3.60;;;16.90;99.90;;;16.37;100.00;101283.19;4153952;28;20030;-71
2023/05/05 08:14:19;;;;;;;20.15;4.03;;;16.90;99.90;;;16.41;100.00;101273.84;4166276;28;20029;-71
2023/05/05 08:16:20;;;;;;;19.42;3.88;;;17.00;99.90;;;16.37;100.00;101281.34;4171684;28;20026;-71
2023/05/05 08:18:21;;;;;;;15.75;3.08;;;17.10;99.90;;;16.39;100.00;101282.03;4171760;28;20037;-71
2023/05/05 08:20:26;;;;;;;16.35;3.67;;;17.10;99.90;;;16.49;100.00;101279.06;4171768;28;20493;-71
2023/05/05 08:22:27;;;;;;;14.73;3.70;;;17.10;99.90;;;16.39;100.00;101275.88;4171668;28;20041;-71